sensor_id;sensor_type;location;lat;lon;timestamp;P1;durP1;ratioP1;P2;durP2;ratioP2
5742;SDS011;2896;53.500;10.020;2023-02-15T00:00:29;383.93;;;65.70;;
5742;SDS011;2896;53.500;10.020;2023-02-15T00:02:55;544.17;;;68.50;;
5742;SDS011;2896;53.500;10.020;2023-02-15T00:05:22;386.13;;;68.60;;
5742;SDS011;2896;53.500;10.020;2023-02-15T00:07:48;447.67;;;67.40;;
5742;SDS011;2896;53.500;10.020;2023-02-15T00:10:15;505.50;;;70.57;;
5742;SDS011;2896;53.500;10.020;2023-02-15T00:12:42;326.57;;;61.27;;
5742;SDS011;2896;53.500;10.020;2023-02-15T00:15:09;269.87;;;57.60;;
5742;SDS011;2896;53.500;10.020;2023-02-15T00:17:38;290.37;;;59.17;;
5742;SDS011;2896;53.500;10.020;2023-02-15T00:20:06;441.93;;;65.17;;
5742;SDS011;2896;53.500;10.020;2023-02-15T00:22:33;349.30;;;61.03;;
5742;SDS011;2896;53.500;10.020;2023-02-15T00:24:59;564.07;;;76.80;;
5742;SDS011;2896;53.500;10.020;2023-02-15T00:27:26;309.33;;;59.00;;
5742;SDS011;2896;53.500;10.020;2023-02-15T00:29:53;246.43;;;56.00;;
5742;SDS011;2896;53.500;10.020;2023-02-15T00:32:19;380.07;;;60.70;;
5742;SDS011;2896;53.500;10.020;2023-02-15T00:34:47;324.93;;;59.23;;
5742;SDS011;2896;53.500;10.020;2023-02-15T00:37:14;453.60;;;70.03;;
5742;SDS011;2896;53.500;10.020;2023-02-15T00:39:40;431.47;;;65.10;;
5742;SDS011;2896;53.500;10.020;2023-02-15T00:42:07;390.77;;;66.00;;
5742;SDS011;2896;53.500;10.020;2023-02-15T00:44:33;173.33;;;54.17;;
5742;SDS011;2896;53.500;10.020;2023-02-15T00:47:00;420.60;;;62.80;;
5742;SDS011;2896;53.500;10.020;2023-02-15T00:49:27;417.67;;;63.13;;
5742;SDS011;2896;53.500;10.020;2023-02-15T00:51:55;434.27;;;67.43;;
5742;SDS011;2896;53.500;10.020;2023-02-15T00:54:21;465.93;;;65.00;;
5742;SDS011;2896;53.500;10.020;2023-02-15T00:56:48;290.23;;;58.50;;
5742;SDS011;2896;53.500;10.020;2023-02-15T00:59:15;376.50;;;65.03;;
5742;SDS011;2896;53.500;10.020;2023-02-15T01:01:41;398.63;;;64.53;;
5742;SDS011;2896;53.500;10.020;2023-02-15T01:04:08;450.43;;;64.60;;
5742;SDS011;2896;53.500;10.020;2023-02-15T01:06:35;282.63;;;58.40;;
5742;SDS011;2896;53.500;10.020;2023-02-15T01:09:03;218.13;;;55.10;;
5742;SDS011;2896;53.500;10.020;2023-02-15T01:11:29;338.63;;;59.30;;
5742;SDS011;2896;53.500;10.020;2023-02-15T01:13:57;163.23;;;51.33;;
5742;SDS011;2896;53.500;10.020;2023-02-15T01:16:24;204.90;;;53.97;;
5742;SDS011;2896;53.500;10.020;2023-02-15T01:18:53;388.57;;;62.80;;
5742;SDS011;2896;53.500;10.020;2023-02-15T01:21:21;294.27;;;57.77;;
5742;SDS011;2896;53.500;10.020;2023-02-15T01:23:49;388.97;;;62.50;;
5742;SDS011;2896;53.500;10.020;2023-02-15T01:26:18;289.30;;;58.90;;
5742;SDS011;2896;53.500;10.020;2023-02-15T01:28:44;301.57;;;61.60;;
5742;SDS011;2896;53.500;10.020;2023-02-15T01:31:12;428.30;;;66.57;;
5742;SDS011;2896;53.500;10.020;2023-02-15T01:33:40;272.87;;;59.20;;
5742;SDS011;2896;53.500;10.020;2023-02-15T01:36:07;175.23;;;53.03;;
5742;SDS011;2896;53.500;10.020;2023-02-15T01:38:34;255.17;;;55.77;;
5742;SDS011;2896;53.500;10.020;2023-02-15T01:41:01;393.10;;;62.50;;
5742;SDS011;2896;53.500;10.020;2023-02-15T01:43:50;302.63;;;57.43;;
5742;SDS011;2896;53.500;10.020;2023-02-15T01:46:19;209.90;;;53.83;;
5742;SDS011;2896;53.500;10.020;2023-02-15T01:48:49;214.93;;;53.70;;
5742;SDS011;2896;53.500;10.020;2023-02-15T01:51:20;229.43;;;53.00;;
5742;SDS011;2896;53.500;10.020;2023-02-15T01:53:51;313.50;;;59.20;;
5742;SDS011;2896;53.500;10.020;2023-02-15T01:56:23;216.43;;;55.07;;
5742;SDS011;2896;53.500;10.020;2023-02-15T01:58:55;491.87;;;64.87;;
5742;SDS011;2896;53.500;10.020;2023-02-15T02:01:25;372.83;;;60.10;;
5742;SDS011;2896;53.500;10.020;2023-02-15T02:03:56;161.60;;;51.27;;
5742;SDS011;2896;53.500;10.020;2023-02-15T02:06:28;451.70;;;62.63;;
5742;SDS011;2896;53.500;10.020;2023-02-15T02:08:55;603.03;;;75.43;;
5742;SDS011;2896;53.500;10.020;2023-02-15T02:11:23;596.93;;;74.50;;
5742;SDS011;2896;53.500;10.020;2023-02-15T02:13:50;322.30;;;58.00;;
5742;SDS011;2896;53.500;10.020;2023-02-15T02:16:22;313.30;;;57.70;;
5742;SDS011;2896;53.500;10.020;2023-02-15T02:18:58;357.90;;;58.97;;
5742;SDS011;2896;53.500;10.020;2023-02-15T02:21:50;224.13;;;54.70;;
5742;SDS011;2896;53.500;10.020;2023-02-15T02:25:06;449.37;;;65.63;;
5742;SDS011;2896;53.500;10.020;2023-02-15T02:27:49;182.27;;;52.10;;
5742;SDS011;2896;53.500;10.020;2023-02-15T02:33:23;399.33;;;61.90;;
5742;SDS011;2896;53.500;10.020;2023-02-15T02:36:10;442.77;;;58.87;;
5742;SDS011;2896;53.500;10.020;2023-02-15T02:41:44;179.33;;;48.00;;
5742;SDS011;2896;53.500;10.020;2023-02-15T02:44:22;250.17;;;55.57;;
5742;SDS011;2896;53.500;10.020;2023-02-15T02:46:52;230.77;;;48.00;;
5742;SDS011;2896;53.500;10.020;2023-02-15T02:49:31;165.30;;;51.17;;
5742;SDS011;2896;53.500;10.020;2023-02-15T02:52:00;369.50;;;57.23;;
5742;SDS011;2896;53.500;10.020;2023-02-15T02:54:27;409.53;;;58.07;;
5742;SDS011;2896;53.500;10.020;2023-02-15T02:56:54;516.13;;;64.40;;
5742;SDS011;2896;53.500;10.020;2023-02-15T02:59:25;314.90;;;59.03;;
5742;SDS011;2896;53.500;10.020;2023-02-15T03:01:57;568.63;;;64.80;;
5742;SDS011;2896;53.500;10.020;2023-02-15T03:04:27;174.83;;;47.47;;
5742;SDS011;2896;53.500;10.020;2023-02-15T03:06:59;327.20;;;51.77;;
5742;SDS011;2896;53.500;10.020;2023-02-15T03:09:29;419.93;;;60.10;;
5742;SDS011;2896;53.500;10.020;2023-02-15T03:12:06;307.13;;;52.17;;
5742;SDS011;2896;53.500;10.020;2023-02-15T03:14:35;450.53;;;60.13;;
5742;SDS011;2896;53.500;10.020;2023-02-15T03:17:02;327.90;;;58.07;;
5742;SDS011;2896;53.500;10.020;2023-02-15T03:19:33;359.67;;;56.43;;
5742;SDS011;2896;53.500;10.020;2023-02-15T03:22:04;300.73;;;53.77;;
5742;SDS011;2896;53.500;10.020;2023-02-15T03:24:35;197.80;;;47.83;;
5742;SDS011;2896;53.500;10.020;2023-02-15T03:27:09;244.00;;;50.47;;
5742;SDS011;2896;53.500;10.020;2023-02-15T03:29:42;365.87;;;57.37;;
5742;SDS011;2896;53.500;10.020;2023-02-15T03:32:11;336.50;;;50.77;;
5742;SDS011;2896;53.500;10.020;2023-02-15T03:34:40;452.90;;;59.60;;
5742;SDS011;2896;53.500;10.020;2023-02-15T03:37:10;343.50;;;53.23;;
5742;SDS011;2896;53.500;10.020;2023-02-15T03:39:42;342.43;;;53.60;;
5742;SDS011;2896;53.500;10.020;2023-02-15T03:42:13;216.50;;;47.57;;
5742;SDS011;2896;53.500;10.020;2023-02-15T03:44:46;196.10;;;47.60;;
5742;SDS011;2896;53.500;10.020;2023-02-15T03:47:19;255.80;;;50.00;;
5742;SDS011;2896;53.500;10.020;2023-02-15T03:49:48;118.13;;;42.10;;
5742;SDS011;2896;53.500;10.020;2023-02-15T03:52:20;127.53;;;41.20;;
5742;SDS011;2896;53.500;10.020;2023-02-15T03:54:48;178.53;;;43.77;;
5742;SDS011;2896;53.500;10.020;2023-02-15T03:57:17;92.97;;;37.60;;
5742;SDS011;2896;53.500;10.020;2023-02-15T04:00:04;323.13;;;49.43;;
5742;SDS011;2896;53.500;10.020;2023-02-15T04:03:04;124.53;;;42.17;;
5742;SDS011;2896;53.500;10.020;2023-02-15T04:05:36;150.87;;;42.07;;
5742;SDS011;2896;53.500;10.020;2023-02-15T04:08:05;393.03;;;51.33;;
5742;SDS011;2896;53.500;10.020;2023-02-15T04:10:32;254.47;;;45.93;;
5742;SDS011;2896;53.500;10.020;2023-02-15T04:13:16;132.67;;;41.13;;
5742;SDS011;2896;53.500;10.020;2023-02-15T04:15:43;269.87;;;43.03;;
5742;SDS011;2896;53.500;10.020;2023-02-15T04:18:27;316.53;;;47.97;;
5742;SDS011;2896;53.500;10.020;2023-02-15T04:21:12;264.93;;;46.17;;
5742;SDS011;2896;53.500;10.020;2023-02-15T04:23:57;381.77;;;49.83;;
5742;SDS011;2896;53.500;10.020;2023-02-15T04:26:41;282.13;;;44.30;;
5742;SDS011;2896;53.500;10.020;2023-02-15T04:29:08;416.00;;;51.57;;
5742;SDS011;2896;53.500;10.020;2023-02-15T04:31:34;188.20;;;42.27;;
5742;SDS011;2896;53.500;10.020;2023-02-15T04:34:01;329.67;;;49.43;;
5742;SDS011;2896;53.500;10.020;2023-02-15T04:36:28;299.90;;;43.20;;
5742;SDS011;2896;53.500;10.020;2023-02-15T04:38:54;97.03;;;36.97;;
5742;SDS011;2896;53.500;10.020;2023-02-15T04:41:22;368.97;;;48.60;;
5742;SDS011;2896;53.500;10.020;2023-02-15T04:43:49;513.33;;;58.43;;
5742;SDS011;2896;53.500;10.020;2023-02-15T04:46:15;470.10;;;52.00;;
5742;SDS011;2896;53.500;10.020;2023-02-15T04:48:42;173.73;;;42.03;;
5742;SDS011;2896;53.500;10.020;2023-02-15T04:51:09;80.10;;;35.73;;
5742;SDS011;2896;53.500;10.020;2023-02-15T04:53:36;479.40;;;53.90;;
5742;SDS011;2896;53.500;10.020;2023-02-15T04:56:02;114.73;;;37.90;;
5742;SDS011;2896;53.500;10.020;2023-02-15T04:58:31;457.50;;;53.80;;
5742;SDS011;2896;53.500;10.020;2023-02-15T05:00:57;401.93;;;51.13;;
5742;SDS011;2896;53.500;10.020;2023-02-15T05:03:24;311.37;;;43.80;;
5742;SDS011;2896;53.500;10.020;2023-02-15T05:05:51;436.50;;;51.67;;
5742;SDS011;2896;53.500;10.020;2023-02-15T05:08:17;244.40;;;40.77;;
5742;SDS011;2896;53.500;10.020;2023-02-15T05:10:44;241.13;;;42.20;;
5742;SDS011;2896;53.500;10.020;2023-02-15T05:13:13;173.47;;;42.63;;
5742;SDS011;2896;53.500;10.020;2023-02-15T05:15:41;241.13;;;46.37;;
5742;SDS011;2896;53.500;10.020;2023-02-15T05:18:07;367.53;;;46.40;;
5742;SDS011;2896;53.500;10.020;2023-02-15T05:20:34;197.33;;;43.07;;
5742;SDS011;2896;53.500;10.020;2023-02-15T05:23:01;204.23;;;43.63;;
5742;SDS011;2896;53.500;10.020;2023-02-15T05:25:27;210.80;;;41.40;;
5742;SDS011;2896;53.500;10.020;2023-02-15T05:28:11;139.87;;;37.50;;
5742;SDS011;2896;53.500;10.020;2023-02-15T05:30:48;254.20;;;43.73;;
5742;SDS011;2896;53.500;10.020;2023-02-15T05:33:16;180.30;;;39.37;;
5742;SDS011;2896;53.500;10.020;2023-02-15T05:35:43;419.13;;;46.60;;
5742;SDS011;2896;53.500;10.020;2023-02-15T05:38:10;457.20;;;52.20;;
5742;SDS011;2896;53.500;10.020;2023-02-15T05:40:36;243.10;;;42.60;;
5742;SDS011;2896;53.500;10.020;2023-02-15T05:43:03;397.30;;;49.67;;
5742;SDS011;2896;53.500;10.020;2023-02-15T05:45:29;200.97;;;41.63;;
5742;SDS011;2896;53.500;10.020;2023-02-15T05:47:57;307.10;;;46.97;;
5742;SDS011;2896;53.500;10.020;2023-02-15T05:50:24;116.63;;;39.30;;
5742;SDS011;2896;53.500;10.020;2023-02-15T05:52:51;151.70;;;38.70;;
5742;SDS011;2896;53.500;10.020;2023-02-15T05:55:17;255.70;;;45.37;;
5742;SDS011;2896;53.500;10.020;2023-02-15T05:57:44;263.53;;;47.73;;
5742;SDS011;2896;53.500;10.020;2023-02-15T06:00:12;198.27;;;41.13;;
5742;SDS011;2896;53.500;10.020;2023-02-15T06:02:39;138.43;;;39.73;;
5742;SDS011;2896;53.500;10.020;2023-02-15T06:05:07;204.23;;;42.97;;
5742;SDS011;2896;53.500;10.020;2023-02-15T06:07:34;237.70;;;43.47;;
5742;SDS011;2896;53.500;10.020;2023-02-15T06:10:01;331.80;;;46.37;;
5742;SDS011;2896;53.500;10.020;2023-02-15T06:12:28;183.07;;;39.67;;
5742;SDS011;2896;53.500;10.020;2023-02-15T06:14:55;125.20;;;38.93;;
5742;SDS011;2896;53.500;10.020;2023-02-15T06:17:22;305.07;;;51.27;;
5742;SDS011;2896;53.500;10.020;2023-02-15T06:19:48;494.37;;;52.40;;
5742;SDS011;2896;53.500;10.020;2023-02-15T06:22:16;426.60;;;44.20;;
5742;SDS011;2896;53.500;10.020;2023-02-15T06:24:43;159.17;;;36.63;;
5742;SDS011;2896;53.500;10.020;2023-02-15T06:27:10;321.57;;;40.13;;
5742;SDS011;2896;53.500;10.020;2023-02-15T06:29:36;173.30;;;36.87;;
5742;SDS011;2896;53.500;10.020;2023-02-15T06:32:04;201.47;;;37.73;;
5742;SDS011;2896;53.500;10.020;2023-02-15T06:34:31;243.13;;;41.17;;
5742;SDS011;2896;53.500;10.020;2023-02-15T06:36:58;429.57;;;43.90;;
5742;SDS011;2896;53.500;10.020;2023-02-15T06:39:26;432.13;;;46.77;;
5742;SDS011;2896;53.500;10.020;2023-02-15T06:41:53;104.33;;;35.53;;
5742;SDS011;2896;53.500;10.020;2023-02-15T06:44:19;76.80;;;33.60;;
5742;SDS011;2896;53.500;10.020;2023-02-15T06:46:46;227.13;;;40.73;;
5742;SDS011;2896;53.500;10.020;2023-02-15T06:49:12;208.53;;;42.17;;
5742;SDS011;2896;53.500;10.020;2023-02-15T06:51:39;103.77;;;36.40;;
5742;SDS011;2896;53.500;10.020;2023-02-15T06:54:06;92.77;;;36.43;;
5742;SDS011;2896;53.500;10.020;2023-02-15T06:56:34;200.97;;;39.10;;
5742;SDS011;2896;53.500;10.020;2023-02-15T06:59:00;82.67;;;33.33;;
5742;SDS011;2896;53.500;10.020;2023-02-15T07:01:28;61.97;;;31.70;;
5742;SDS011;2896;53.500;10.020;2023-02-15T07:03:54;78.47;;;34.20;;
5742;SDS011;2896;53.500;10.020;2023-02-15T07:06:21;271.03;;;40.40;;
5742;SDS011;2896;53.500;10.020;2023-02-15T07:08:48;229.23;;;39.37;;
5742;SDS011;2896;53.500;10.020;2023-02-15T07:11:14;210.77;;;38.23;;
5742;SDS011;2896;53.500;10.020;2023-02-15T07:14:00;437.83;;;45.87;;
5742;SDS011;2896;53.500;10.020;2023-02-15T07:16:26;130.57;;;35.03;;
5742;SDS011;2896;53.500;10.020;2023-02-15T07:18:53;96.13;;;36.77;;
5742;SDS011;2896;53.500;10.020;2023-02-15T07:21:19;269.13;;;38.07;;
5742;SDS011;2896;53.500;10.020;2023-02-15T07:23:46;282.10;;;39.93;;
5742;SDS011;2896;53.500;10.020;2023-02-15T07:26:13;155.93;;;37.67;;
5742;SDS011;2896;53.500;10.020;2023-02-15T07:28:39;291.63;;;38.53;;
5742;SDS011;2896;53.500;10.020;2023-02-15T07:31:07;231.60;;;38.30;;
5742;SDS011;2896;53.500;10.020;2023-02-15T07:33:34;378.77;;;45.00;;
5742;SDS011;2896;53.500;10.020;2023-02-15T07:36:01;234.33;;;37.73;;
5742;SDS011;2896;53.500;10.020;2023-02-15T07:38:30;229.53;;;38.07;;
5742;SDS011;2896;53.500;10.020;2023-02-15T07:40:58;72.17;;;31.77;;
5742;SDS011;2896;53.500;10.020;2023-02-15T07:43:25;256.57;;;35.77;;
5742;SDS011;2896;53.500;10.020;2023-02-15T07:45:52;255.47;;;34.70;;
5742;SDS011;2896;53.500;10.020;2023-02-15T07:48:20;159.63;;;35.47;;
5742;SDS011;2896;53.500;10.020;2023-02-15T07:50:47;68.63;;;32.10;;
5742;SDS011;2896;53.500;10.020;2023-02-15T07:53:13;174.10;;;37.67;;
5742;SDS011;2896;53.500;10.020;2023-02-15T07:55:40;319.97;;;38.10;;
5742;SDS011;2896;53.500;10.020;2023-02-15T07:58:06;291.77;;;37.20;;
5742;SDS011;2896;53.500;10.020;2023-02-15T08:00:33;98.03;;;34.90;;
5742;SDS011;2896;53.500;10.020;2023-02-15T08:03:23;81.27;;;31.70;;
5742;SDS011;2896;53.500;10.020;2023-02-15T08:05:51;237.63;;;40.17;;
5742;SDS011;2896;53.500;10.020;2023-02-15T08:08:21;135.03;;;32.60;;
5742;SDS011;2896;53.500;10.020;2023-02-15T08:10:58;350.30;;;40.67;;
5742;SDS011;2896;53.500;10.020;2023-02-15T08:13:43;83.27;;;29.73;;
5742;SDS011;2896;53.500;10.020;2023-02-15T08:16:18;119.57;;;33.97;;
5742;SDS011;2896;53.500;10.020;2023-02-15T08:18:47;382.73;;;40.13;;
5742;SDS011;2896;53.500;10.020;2023-02-15T08:21:13;238.37;;;39.90;;
5742;SDS011;2896;53.500;10.020;2023-02-15T08:23:40;253.27;;;34.60;;
5742;SDS011;2896;53.500;10.020;2023-02-15T08:26:07;80.07;;;31.30;;
5742;SDS011;2896;53.500;10.020;2023-02-15T08:28:33;155.43;;;37.17;;
5742;SDS011;2896;53.500;10.020;2023-02-15T08:31:03;209.70;;;34.50;;
5742;SDS011;2896;53.500;10.020;2023-02-15T08:33:30;188.43;;;39.17;;
5742;SDS011;2896;53.500;10.020;2023-02-15T08:36:03;127.23;;;34.77;;
5742;SDS011;2896;53.500;10.020;2023-02-15T08:38:30;250.87;;;36.50;;
5742;SDS011;2896;53.500;10.020;2023-02-15T08:40:57;184.77;;;34.53;;
5742;SDS011;2896;53.500;10.020;2023-02-15T08:43:24;297.77;;;37.27;;
5742;SDS011;2896;53.500;10.020;2023-02-15T08:45:50;105.87;;;32.73;;
5742;SDS011;2896;53.500;10.020;2023-02-15T08:48:17;175.03;;;35.77;;
5742;SDS011;2896;53.500;10.020;2023-02-15T08:50:44;170.17;;;32.70;;
5742;SDS011;2896;53.500;10.020;2023-02-15T08:53:12;228.63;;;33.73;;
5742;SDS011;2896;53.500;10.020;2023-02-15T08:55:38;218.87;;;33.63;;
5742;SDS011;2896;53.500;10.020;2023-02-15T08:58:05;167.97;;;34.73;;
5742;SDS011;2896;53.500;10.020;2023-02-15T09:00:32;318.83;;;38.07;;
5742;SDS011;2896;53.500;10.020;2023-02-15T09:02:59;263.20;;;34.33;;
5742;SDS011;2896;53.500;10.020;2023-02-15T09:05:25;120.13;;;32.87;;
5742;SDS011;2896;53.500;10.020;2023-02-15T09:07:52;72.43;;;31.10;;
5742;SDS011;2896;53.500;10.020;2023-02-15T09:10:20;67.67;;;32.90;;
5742;SDS011;2896;53.500;10.020;2023-02-15T09:12:46;226.50;;;37.27;;
5742;SDS011;2896;53.500;10.020;2023-02-15T09:15:15;150.53;;;36.20;;
5742;SDS011;2896;53.500;10.020;2023-02-15T09:17:41;80.93;;;33.73;;
5742;SDS011;2896;53.500;10.020;2023-02-15T09:20:08;230.60;;;39.30;;
5742;SDS011;2896;53.500;10.020;2023-02-15T09:22:35;53.10;;;29.97;;
5742;SDS011;2896;53.500;10.020;2023-02-15T09:25:02;87.10;;;31.83;;
5742;SDS011;2896;53.500;10.020;2023-02-15T09:27:30;120.77;;;32.20;;
5742;SDS011;2896;53.500;10.020;2023-02-15T09:29:57;61.23;;;31.13;;
5742;SDS011;2896;53.500;10.020;2023-02-15T09:32:24;69.60;;;32.07;;
5742;SDS011;2896;53.500;10.020;2023-02-15T09:34:51;255.10;;;38.00;;
5742;SDS011;2896;53.500;10.020;2023-02-15T09:37:17;124.40;;;34.60;;
5742;SDS011;2896;53.500;10.020;2023-02-15T09:39:44;141.07;;;33.10;;
5742;SDS011;2896;53.500;10.020;2023-02-15T09:45:13;145.83;;;33.20;;
5742;SDS011;2896;53.500;10.020;2023-02-15T09:48:02;63.80;;;33.20;;
5742;SDS011;2896;53.500;10.020;2023-02-15T09:50:40;57.83;;;31.70;;
5742;SDS011;2896;53.500;10.020;2023-02-15T09:53:23;143.40;;;32.00;;
5742;SDS011;2896;53.500;10.020;2023-02-15T09:56:00;61.43;;;30.73;;
5742;SDS011;2896;53.500;10.020;2023-02-15T09:58:35;107.87;;;31.30;;
5742;SDS011;2896;53.500;10.020;2023-02-15T10:01:14;116.10;;;31.87;;
5742;SDS011;2896;53.500;10.020;2023-02-15T10:03:53;68.73;;;29.60;;
5742;SDS011;2896;53.500;10.020;2023-02-15T10:06:35;125.03;;;32.07;;
5742;SDS011;2896;53.500;10.020;2023-02-15T10:09:18;86.67;;;30.93;;
5742;SDS011;2896;53.500;10.020;2023-02-15T10:11:54;106.30;;;32.50;;
5742;SDS011;2896;53.500;10.020;2023-02-15T10:14:37;96.90;;;30.00;;
5742;SDS011;2896;53.500;10.020;2023-02-15T10:17:21;100.33;;;31.50;;
5742;SDS011;2896;53.500;10.020;2023-02-15T10:20:02;61.93;;;30.73;;
5742;SDS011;2896;53.500;10.020;2023-02-15T10:22:41;58.23;;;29.37;;
5742;SDS011;2896;53.500;10.020;2023-02-15T10:25:24;53.63;;;30.87;;
5742;SDS011;2896;53.500;10.020;2023-02-15T10:27:58;86.70;;;28.70;;
5742;SDS011;2896;53.500;10.020;2023-02-15T10:30:34;56.07;;;29.27;;
5742;SDS011;2896;53.500;10.020;2023-02-15T10:33:07;116.90;;;33.57;;
5742;SDS011;2896;53.500;10.020;2023-02-15T10:35:46;65.90;;;27.70;;
5742;SDS011;2896;53.500;10.020;2023-02-15T10:38:25;67.73;;;28.43;;
5742;SDS011;2896;53.500;10.020;2023-02-15T10:41:02;47.90;;;28.60;;
5742;SDS011;2896;53.500;10.020;2023-02-15T10:43:55;102.13;;;28.27;;
5742;SDS011;2896;53.500;10.020;2023-02-15T10:46:39;56.60;;;28.53;;
5742;SDS011;2896;53.500;10.020;2023-02-15T10:52:25;48.80;;;28.33;;
5742;SDS011;2896;53.500;10.020;2023-02-15T10:55:02;46.80;;;28.10;;
5742;SDS011;2896;53.500;10.020;2023-02-15T10:57:39;64.00;;;27.30;;
5742;SDS011;2896;53.500;10.020;2023-02-15T11:00:16;50.90;;;28.13;;
5742;SDS011;2896;53.500;10.020;2023-02-15T11:03:01;45.03;;;27.73;;
5742;SDS011;2896;53.500;10.020;2023-02-15T11:05:37;48.93;;;27.87;;
5742;SDS011;2896;53.500;10.020;2023-02-15T11:08:14;49.63;;;27.60;;
5742;SDS011;2896;53.500;10.020;2023-02-15T11:10:42;51.80;;;29.70;;
5742;SDS011;2896;53.500;10.020;2023-02-15T11:13:13;50.97;;;29.00;;
5742;SDS011;2896;53.500;10.020;2023-02-15T11:15:43;44.47;;;28.50;;
5742;SDS011;2896;53.500;10.020;2023-02-15T11:18:15;57.20;;;31.40;;
5742;SDS011;2896;53.500;10.020;2023-02-15T11:20:50;50.43;;;28.87;;
5742;SDS011;2896;53.500;10.020;2023-02-15T11:23:21;57.30;;;31.67;;
5742;SDS011;2896;53.500;10.020;2023-02-15T11:25:52;62.93;;;32.47;;
5742;SDS011;2896;53.500;10.020;2023-02-15T11:28:23;68.63;;;35.93;;
5742;SDS011;2896;53.500;10.020;2023-02-15T11:30:54;64.73;;;36.63;;
5742;SDS011;2896;53.500;10.020;2023-02-15T11:33:24;53.17;;;32.10;;
5742;SDS011;2896;53.500;10.020;2023-02-15T11:35:57;51.17;;;29.70;;
5742;SDS011;2896;53.500;10.020;2023-02-15T11:38:27;54.03;;;30.67;;
5742;SDS011;2896;53.500;10.020;2023-02-15T11:40:59;51.87;;;32.97;;
5742;SDS011;2896;53.500;10.020;2023-02-15T11:43:30;49.53;;;29.37;;
5742;SDS011;2896;53.500;10.020;2023-02-15T11:46:00;51.90;;;30.87;;
5742;SDS011;2896;53.500;10.020;2023-02-15T11:48:28;45.37;;;27.73;;
5742;SDS011;2896;53.500;10.020;2023-02-15T11:50:56;48.60;;;28.87;;
5742;SDS011;2896;53.500;10.020;2023-02-15T11:53:31;45.97;;;29.10;;
5742;SDS011;2896;53.500;10.020;2023-02-15T11:55:59;42.93;;;26.90;;
5742;SDS011;2896;53.500;10.020;2023-02-15T11:58:30;42.80;;;27.17;;
5742;SDS011;2896;53.500;10.020;2023-02-15T12:01:02;42.90;;;27.93;;
5742;SDS011;2896;53.500;10.020;2023-02-15T12:03:42;46.70;;;28.10;;
5742;SDS011;2896;53.500;10.020;2023-02-15T12:06:14;42.77;;;27.70;;
5742;SDS011;2896;53.500;10.020;2023-02-15T12:08:46;48.83;;;27.40;;
5742;SDS011;2896;53.500;10.020;2023-02-15T12:11:18;42.43;;;28.67;;
5742;SDS011;2896;53.500;10.020;2023-02-15T12:13:56;49.57;;;28.40;;
5742;SDS011;2896;53.500;10.020;2023-02-15T12:16:24;45.43;;;28.13;;
5742;SDS011;2896;53.500;10.020;2023-02-15T12:18:53;39.30;;;26.97;;
5742;SDS011;2896;53.500;10.020;2023-02-15T12:21:26;42.23;;;27.87;;
5742;SDS011;2896;53.500;10.020;2023-02-15T12:23:57;41.57;;;28.17;;
5742;SDS011;2896;53.500;10.020;2023-02-15T12:26:29;38.13;;;25.40;;
5742;SDS011;2896;53.500;10.020;2023-02-15T12:28:58;43.63;;;26.17;;
5742;SDS011;2896;53.500;10.020;2023-02-15T12:31:28;36.93;;;25.50;;
5742;SDS011;2896;53.500;10.020;2023-02-15T12:34:01;41.37;;;26.00;;
5742;SDS011;2896;53.500;10.020;2023-02-15T12:36:40;38.40;;;25.63;;
5742;SDS011;2896;53.500;10.020;2023-02-15T12:39:18;37.77;;;24.70;;
5742;SDS011;2896;53.500;10.020;2023-02-15T12:41:56;38.20;;;25.40;;
5742;SDS011;2896;53.500;10.020;2023-02-15T12:44:26;36.77;;;24.70;;
5742;SDS011;2896;53.500;10.020;2023-02-15T12:46:57;35.20;;;23.73;;
5742;SDS011;2896;53.500;10.020;2023-02-15T12:49:28;41.50;;;25.30;;
5742;SDS011;2896;53.500;10.020;2023-02-15T12:51:56;34.33;;;24.13;;
5742;SDS011;2896;53.500;10.020;2023-02-15T12:54:34;34.60;;;23.90;;
5742;SDS011;2896;53.500;10.020;2023-02-15T12:57:26;38.07;;;25.00;;
5742;SDS011;2896;53.500;10.020;2023-02-15T12:59:56;43.57;;;24.57;;
5742;SDS011;2896;53.500;10.020;2023-02-15T13:02:25;35.27;;;23.40;;
5742;SDS011;2896;53.500;10.020;2023-02-15T13:04:57;36.50;;;25.27;;
5742;SDS011;2896;53.500;10.020;2023-02-15T13:07:33;36.50;;;25.37;;
5742;SDS011;2896;53.500;10.020;2023-02-15T13:10:00;36.67;;;24.87;;
5742;SDS011;2896;53.500;10.020;2023-02-15T13:12:27;35.17;;;25.20;;
5742;SDS011;2896;53.500;10.020;2023-02-15T13:14:57;35.30;;;25.03;;
5742;SDS011;2896;53.500;10.020;2023-02-15T13:17:28;35.90;;;23.93;;
5742;SDS011;2896;53.500;10.020;2023-02-15T13:20:02;37.93;;;25.13;;
5742;SDS011;2896;53.500;10.020;2023-02-15T13:22:35;31.73;;;22.90;;
5742;SDS011;2896;53.500;10.020;2023-02-15T13:25:10;36.30;;;25.07;;
5742;SDS011;2896;53.500;10.020;2023-02-15T13:27:41;30.20;;;22.33;;
5742;SDS011;2896;53.500;10.020;2023-02-15T13:32:57;35.17;;;23.80;;
5742;SDS011;2896;53.500;10.020;2023-02-15T13:35:30;33.93;;;23.90;;
5742;SDS011;2896;53.500;10.020;2023-02-15T13:38:10;28.20;;;21.73;;
5742;SDS011;2896;53.500;10.020;2023-02-15T13:40:48;31.33;;;21.97;;
5742;SDS011;2896;53.500;10.020;2023-02-15T13:43:33;33.67;;;20.10;;
5742;SDS011;2896;53.500;10.020;2023-02-15T13:46:12;31.00;;;21.40;;
5742;SDS011;2896;53.500;10.020;2023-02-15T13:48:51;27.23;;;21.27;;
5742;SDS011;2896;53.500;10.020;2023-02-15T13:51:34;33.67;;;22.40;;
5742;SDS011;2896;53.500;10.020;2023-02-15T13:54:22;27.17;;;20.57;;
5742;SDS011;2896;53.500;10.020;2023-02-15T13:57:02;26.63;;;21.17;;
5742;SDS011;2896;53.500;10.020;2023-02-15T13:59:47;27.40;;;20.63;;
5742;SDS011;2896;53.500;10.020;2023-02-15T14:05:26;25.60;;;19.47;;
5742;SDS011;2896;53.500;10.020;2023-02-15T14:08:01;32.87;;;22.00;;
5742;SDS011;2896;53.500;10.020;2023-02-15T14:10:44;29.27;;;21.63;;
5742;SDS011;2896;53.500;10.020;2023-02-15T14:16:17;29.83;;;21.87;;
5742;SDS011;2896;53.500;10.020;2023-02-15T14:18:54;31.53;;;22.87;;
5742;SDS011;2896;53.500;10.020;2023-02-15T14:21:26;32.17;;;23.07;;
5742;SDS011;2896;53.500;10.020;2023-02-15T14:24:02;31.07;;;21.80;;
5742;SDS011;2896;53.500;10.020;2023-02-15T14:26:40;35.57;;;24.00;;
5742;SDS011;2896;53.500;10.020;2023-02-15T14:29:16;33.70;;;22.97;;
5742;SDS011;2896;53.500;10.020;2023-02-15T14:31:52;29.27;;;21.50;;
5742;SDS011;2896;53.500;10.020;2023-02-15T14:34:21;28.43;;;22.07;;
5742;SDS011;2896;53.500;10.020;2023-02-15T14:36:51;29.20;;;22.33;;
5742;SDS011;2896;53.500;10.020;2023-02-15T14:39:24;27.17;;;21.27;;
5742;SDS011;2896;53.500;10.020;2023-02-15T14:42:17;27.30;;;20.40;;
5742;SDS011;2896;53.500;10.020;2023-02-15T14:44:48;26.53;;;21.47;;
5742;SDS011;2896;53.500;10.020;2023-02-15T14:47:22;29.83;;;21.20;;
5742;SDS011;2896;53.500;10.020;2023-02-15T14:49:56;27.80;;;21.10;;
5742;SDS011;2896;53.500;10.020;2023-02-15T14:52:22;30.00;;;22.90;;
5742;SDS011;2896;53.500;10.020;2023-02-15T14:54:54;35.83;;;24.33;;
5742;SDS011;2896;53.500;10.020;2023-02-15T14:57:24;30.50;;;23.27;;
5742;SDS011;2896;53.500;10.020;2023-02-15T14:59:53;32.03;;;23.77;;
5742;SDS011;2896;53.500;10.020;2023-02-15T15:02:22;29.60;;;21.97;;
5742;SDS011;2896;53.500;10.020;2023-02-15T15:04:55;36.93;;;23.13;;
5742;SDS011;2896;53.500;10.020;2023-02-15T15:07:26;35.80;;;24.63;;
5742;SDS011;2896;53.500;10.020;2023-02-15T15:09:59;32.33;;;23.27;;